sensor_id;sensor_type;location;lat;lon;timestamp;pressure;altitude;pressure_sealevel;temperature;humidity
34297;BME280;20564;42.902;25.336;2023-07-31T00:01:00;96782.13;;;22.25;100.00
34297;BME280;20564;42.902;25.336;2023-07-31T00:03:27;96768.16;;;22.23;100.00
34297;BME280;20564;42.902;25.336;2023-07-31T00:05:54;96758.34;;;22.10;100.00
34297;BME280;20564;42.902;25.336;2023-07-31T00:08:21;96765.88;;;22.02;100.00
34297;BME280;20564;42.902;25.336;2023-07-31T00:10:51;96750.69;;;21.96;100.00
34297;BME280;20564;42.902;25.336;2023-07-31T00:13:19;96766.63;;;21.90;100.00
34297;BME280;20564;42.902;25.336;2023-07-31T00:15:47;96764.88;;;21.96;100.00
34297;BME280;20564;42.902;25.336;2023-07-31T00:18:15;96755.44;;;21.94;100.00
34297;BME280;20564;42.902;25.336;2023-07-31T00:20:42;96752.75;;;21.94;100.00
34297;BME280;20564;42.902;25.336;2023-07-31T00:23:09;96756.72;;;21.91;100.00
34297;BME280;20564;42.902;25.336;2023-07-31T00:25:38;96767.34;;;21.79;100.00
34297;BME280;20564;42.902;25.336;2023-07-31T00:28:05;96754.97;;;21.78;100.00
34297;BME280;20564;42.902;25.336;2023-07-31T00:30:32;96766.13;;;21.75;100.00
34297;BME280;20564;42.902;25.336;2023-07-31T00:33:00;96757.94;;;21.70;100.00
34297;BME280;20564;42.902;25.336;2023-07-31T00:35:27;96765.47;;;21.61;100.00
34297;BME280;20564;42.902;25.336;2023-07-31T00:37:54;96759.06;;;21.62;100.00
34297;BME280;20564;42.902;25.336;2023-07-31T00:40:21;96758.81;;;21.64;100.00
34297;BME280;20564;42.902;25.336;2023-07-31T00:42:48;96751.41;;;21.66;100.00
34297;BME280;20564;42.902;25.336;2023-07-31T00:45:15;96740.16;;;21.57;100.00
34297;BME280;20564;42.902;25.336;2023-07-31T00:47:42;96742.16;;;21.62;100.00
34297;BME280;20564;42.902;25.336;2023-07-31T00:50:13;96740.97;;;21.58;100.00
34297;BME280;20564;42.902;25.336;2023-07-31T00:52:40;96744.09;;;21.55;100.00
34297;BME280;20564;42.902;25.336;2023-07-31T00:55:08;96732.63;;;21.48;100.00
34297;BME280;20564;42.902;25.336;2023-07-31T00:57:35;96736.78;;;21.43;100.00
34297;BME280;20564;42.902;25.336;2023-07-31T01:00:03;96736.78;;;21.43;100.00
34297;BME280;20564;42.902;25.336;2023-07-31T01:02:30;96734.91;;;21.44;100.00
34297;BME280;20564;42.902;25.336;2023-07-31T01:04:58;96732.28;;;21.37;100.00
34297;BME280;20564;42.902;25.336;2023-07-31T01:10:16;96716.19;;;21.44;100.00
34297;BME280;20564;42.902;25.336;2023-07-31T01:12:45;96715.13;;;21.45;100.00
34297;BME280;20564;42.902;25.336;2023-07-31T01:15:14;96712.00;;;21.48;100.00
34297;BME280;20564;42.902;25.336;2023-07-31T01:17:42;96715.75;;;21.47;100.00
34297;BME280;20564;42.902;25.336;2023-07-31T01:20:20;96717.13;;;21.50;100.00
34297;BME280;20564;42.902;25.336;2023-07-31T01:25:56;96708.28;;;21.49;100.00
34297;BME280;20564;42.902;25.336;2023-07-31T01:31:14;96709.56;;;21.47;100.00
34297;BME280;20564;42.902;25.336;2023-07-31T01:33:43;96710.44;;;21.40;100.00
34297;BME280;20564;42.902;25.336;2023-07-31T01:36:10;96710.44;;;21.40;100.00
34297;BME280;20564;42.902;25.336;2023-07-31T01:38:38;96709.00;;;21.38;100.00
34297;BME280;20564;42.902;25.336;2023-07-31T01:41:05;96696.06;;;21.35;100.00
34297;BME280;20564;42.902;25.336;2023-07-31T01:43:32;96695.88;;;21.36;100.00
34297;BME280;20564;42.902;25.336;2023-07-31T01:45:59;96694.81;;;21.37;100.00
34297;BME280;20564;42.902;25.336;2023-07-31T01:48:26;96702.84;;;21.37;100.00
34297;BME280;20564;42.902;25.336;2023-07-31T01:50:53;96700.16;;;21.37;100.00
34297;BME280;20564;42.902;25.336;2023-07-31T01:53:21;96695.63;;;21.38;100.00
34297;BME280;20564;42.902;25.336;2023-07-31T01:55:48;96687.31;;;21.46;100.00
34297;BME280;20564;42.902;25.336;2023-07-31T01:58:15;96691.69;;;21.40;100.00
34297;BME280;20564;42.902;25.336;2023-07-31T02:00:42;96694.38;;;21.40;100.00
34297;BME280;20564;42.902;25.336;2023-07-31T02:03:09;96679.94;;;21.41;100.00
34297;BME280;20564;42.902;25.336;2023-07-31T02:05:37;96676.22;;;21.42;100.00
34297;BME280;20564;42.902;25.336;2023-07-31T02:08:10;96676.44;;;21.41;100.00
34297;BME280;20564;42.902;25.336;2023-07-31T02:10:37;96671.75;;;21.36;100.00
34297;BME280;20564;42.902;25.336;2023-07-31T02:13:04;96673.41;;;21.37;100.00
34297;BME280;20564;42.902;25.336;2023-07-31T02:15:34;96668.06;;;21.31;100.00
34297;BME280;20564;42.902;25.336;2023-07-31T02:18:01;96669.78;;;21.25;100.00
34297;BME280;20564;42.902;25.336;2023-07-31T02:20:28;96666.50;;;21.23;100.00
34297;BME280;20564;42.902;25.336;2023-07-31T02:22:55;96660.72;;;21.26;100.00
34297;BME280;20564;42.902;25.336;2023-07-31T02:25:22;96662.63;;;21.19;100.00
34297;BME280;20564;42.902;25.336;2023-07-31T02:27:49;96672.13;;;21.15;100.00
34297;BME280;20564;42.902;25.336;2023-07-31T02:30:16;96664.06;;;21.22;100.00
34297;BME280;20564;42.902;25.336;2023-07-31T02:32:43;96672.72;;;21.17;100.00
34297;BME280;20564;42.902;25.336;2023-07-31T02:35:10;96682.84;;;21.15;100.00
34297;BME280;20564;42.902;25.336;2023-07-31T02:37:38;96680.16;;;21.15;100.00
34297;BME280;20564;42.902;25.336;2023-07-31T02:40:06;96681.41;;;21.12;100.00
34297;BME280;20564;42.902;25.336;2023-07-31T02:42:33;96679.78;;;21.11;100.00
34297;BME280;20564;42.902;25.336;2023-07-31T02:45:00;96688.44;;;21.13;100.00
34297;BME280;20564;42.902;25.336;2023-07-31T02:47:27;96681.78;;;21.16;100.00
34297;BME280;20564;42.902;25.336;2023-07-31T02:49:54;96683.06;;;21.13;100.00
34297;BME280;20564;42.902;25.336;2023-07-31T02:52:22;96680.16;;;21.15;100.00
34297;BME280;20564;42.902;25.336;2023-07-31T02:54:49;96681.38;;;21.19;100.00
34297;BME280;20564;42.902;25.336;2023-07-31T02:57:16;96680.16;;;21.15;100.00
34297;BME280;20564;42.902;25.336;2023-07-31T02:59:43;96675.63;;;21.15;100.00
34297;BME280;20564;42.902;25.336;2023-07-31T03:02:10;96683.44;;;21.17;100.00
34297;BME280;20564;42.902;25.336;2023-07-31T03:04:38;96683.56;;;21.04;100.00
34297;BME280;20564;42.902;25.336;2023-07-31T03:07:05;96689.34;;;21.01;100.00
34297;BME280;20564;42.902;25.336;2023-07-31T03:09:32;96680.50;;;21.00;100.00
34297;BME280;20564;42.902;25.336;2023-07-31T03:11:59;96682.31;;;21.06;100.00
34297;BME280;20564;42.902;25.336;2023-07-31T03:14:26;96688.28;;;21.02;100.00
34297;BME280;20564;42.902;25.336;2023-07-31T03:16:53;96696.75;;;20.99;100.00
34297;BME280;20564;42.902;25.336;2023-07-31T03:19:20;96701.69;;;21.02;100.00
34297;BME280;20564;42.902;25.336;2023-07-31T03:21:47;96699.22;;;21.00;100.00
34297;BME280;20564;42.902;25.336;2023-07-31T03:24:14;96705.41;;;21.01;100.00
34297;BME280;20564;42.902;25.336;2023-07-31T03:26:41;96707.47;;;20.99;100.00
34297;BME280;20564;42.902;25.336;2023-07-31T03:29:08;96707.03;;;21.02;100.00
34297;BME280;20564;42.902;25.336;2023-07-31T03:31:35;96719.00;;;20.99;100.00
34297;BME280;20564;42.902;25.336;2023-07-31T03:34:02;96718.16;;;20.99;100.00
34297;BME280;20564;42.902;25.336;2023-07-31T03:36:29;96723.31;;;21.00;100.00
34297;BME280;20564;42.902;25.336;2023-07-31T03:38:55;96728.44;;;21.02;100.00
34297;BME280;20564;42.902;25.336;2023-07-31T03:41:22;96724.75;;;21.03;100.00
34297;BME280;20564;42.902;25.336;2023-07-31T03:43:51;96731.72;;;21.04;100.00
34297;BME280;20564;42.902;25.336;2023-07-31T03:46:18;96729.06;;;21.04;100.00
34297;BME280;20564;42.902;25.336;2023-07-31T03:48:45;96728.19;;;21.10;100.00
34297;BME280;20564;42.902;25.336;2023-07-31T03:51:12;96723.38;;;21.18;100.00
34297;BME280;20564;42.902;25.336;2023-07-31T03:53:39;96733.84;;;21.20;100.00
34297;BME280;20564;42.902;25.336;2023-07-31T03:56:06;96743.97;;;21.18;100.00
34297;BME280;20564;42.902;25.336;2023-07-31T03:58:33;96744.41;;;21.15;100.00
34297;BME280;20564;42.902;25.336;2023-07-31T04:00:59;96742.78;;;21.14;100.00
34297;BME280;20564;42.902;25.336;2023-07-31T04:03:26;96742.31;;;21.17;100.00
34297;BME280;20564;42.902;25.336;2023-07-31T04:05:56;96747.22;;;21.20;100.00
34297;BME280;20564;42.902;25.336;2023-07-31T04:08:24;96748.88;;;21.21;100.00
34297;BME280;20564;42.902;25.336;2023-07-31T04:10:51;96757.06;;;21.26;100.00
34297;BME280;20564;42.902;25.336;2023-07-31T04:13:17;96755.00;;;21.28;100.00
34297;BME280;20564;42.902;25.336;2023-07-31T04:15:48;96754.41;;;21.26;100.00
34297;BME280;20564;42.902;25.336;2023-07-31T04:18:16;96755.00;;;21.28;100.00
34297;BME280;20564;42.902;25.336;2023-07-31T04:20:43;96757.03;;;21.33;100.00
34297;BME280;20564;42.902;25.336;2023-07-31T04:23:11;96749.19;;;21.31;100.00
34297;BME280;20564;42.902;25.336;2023-07-31T04:25:38;96761.16;;;21.35;100.00
34297;BME280;20564;42.902;25.336;2023-07-31T04:28:05;96755.56;;;21.37;100.00
34297;BME280;20564;42.902;25.336;2023-07-31T04:30:32;96760.31;;;21.35;100.00
34297;BME280;20564;42.902;25.336;2023-07-31T04:32:59;96769.72;;;21.44;100.00
34297;BME280;20564;42.902;25.336;2023-07-31T04:35:26;96765.63;;;21.41;100.00
34297;BME280;20564;42.902;25.336;2023-07-31T04:37:53;96753.88;;;21.42;100.00
34297;BME280;20564;42.902;25.336;2023-07-31T04:42:47;96760.16;;;21.55;100.00
34297;BME280;20564;42.902;25.336;2023-07-31T04:45:14;96757.31;;;21.50;100.00
34297;BME280;20564;42.902;25.336;2023-07-31T04:47:41;96762.66;;;21.50;100.00
34297;BME280;20564;42.902;25.336;2023-07-31T04:50:08;96771.31;;;21.52;100.00
34297;BME280;20564;42.902;25.336;2023-07-31T04:52:35;96775.03;;;21.51;100.00
34297;BME280;20564;42.902;25.336;2023-07-31T04:55:02;96779.34;;;21.52;100.00
34297;BME280;20564;42.902;25.336;2023-07-31T04:57:29;96782.63;;;21.54;100.00
34297;BME280;20564;42.902;25.336;2023-07-31T04:59:56;96772.13;;;21.52;100.00
34297;BME280;20564;42.902;25.336;2023-07-31T05:02:23;96776.66;;;21.52;100.00
34297;BME280;20564;42.902;25.336;2023-07-31T05:04:51;96768.34;;;21.60;100.00
34297;BME280;20564;42.902;25.336;2023-07-31T05:07:18;96778.00;;;21.61;100.00
34297;BME280;20564;42.902;25.336;2023-07-31T05:09:45;96784.41;;;21.60;100.00
34297;BME280;20564;42.902;25.336;2023-07-31T05:12:12;96774.06;;;21.63;100.00
34297;BME280;20564;42.902;25.336;2023-07-31T05:14:39;96780.25;;;21.64;100.00
34297;BME280;20564;42.902;25.336;2023-07-31T05:17:06;96780.19;;;21.71;100.00
34297;BME280;20564;42.902;25.336;2023-07-31T05:19:33;96779.81;;;21.67;100.00
34297;BME280;20564;42.902;25.336;2023-07-31T05:22:00;96779.81;;;21.67;100.00
34297;BME280;20564;42.902;25.336;2023-07-31T05:24:27;96786.50;;;21.58;100.00
34297;BME280;20564;42.902;25.336;2023-07-31T05:26:54;96784.03;;;21.56;100.00
34297;BME280;20564;42.902;25.336;2023-07-31T05:29:21;96786.50;;;21.58;100.00
34297;BME280;20564;42.902;25.336;2023-07-31T05:31:48;96787.09;;;21.60;100.00
34297;BME280;20564;42.902;25.336;2023-07-31T05:34:15;96788.91;;;21.66;100.00
34297;BME280;20564;42.902;25.336;2023-07-31T05:36:42;96787.28;;;21.65;100.00
34297;BME280;20564;42.902;25.336;2023-07-31T05:39:09;96783.53;;;21.66;100.00
34297;BME280;20564;42.902;25.336;2023-07-31T05:41:36;96795.88;;;21.67;100.00
34297;BME280;20564;42.902;25.336;2023-07-31T05:44:03;96795.94;;;21.60;100.00
34297;BME280;20564;42.902;25.336;2023-07-31T05:46:30;96797.22;;;21.58;100.00
34297;BME280;20564;42.902;25.336;2023-07-31T05:48:58;96797.00;;;21.59;100.00
34297;BME280;20564;42.902;25.336;2023-07-31T05:51:27;96803.78;;;21.62;100.00
34297;BME280;20564;42.902;25.336;2023-07-31T05:53:54;96797.50;;;21.68;100.00
34297;BME280;20564;42.902;25.336;2023-07-31T05:56:21;96791.28;;;21.74;100.00
34297;BME280;20564;42.902;25.336;2023-07-31T05:58:50;96799.50;;;21.79;100.00
34297;BME280;20564;42.902;25.336;2023-07-31T06:01:20;96799.50;;;21.79;100.00
34297;BME280;20564;42.902;25.336;2023-07-31T06:03:48;96807.88;;;21.83;100.00
34297;BME280;20564;42.902;25.336;2023-07-31T06:06:15;96811.22;;;21.78;100.00
34297;BME280;20564;42.902;25.336;2023-07-31T06:08:41;96809.75;;;21.82;100.00
34297;BME280;20564;42.902;25.336;2023-07-31T06:11:09;96813.47;;;21.81;100.00
34297;BME280;20564;42.902;25.336;2023-07-31T06:13:35;96816.09;;;21.88;100.00
34297;BME280;20564;42.902;25.336;2023-07-31T06:16:03;96813.63;;;21.86;100.00
34297;BME280;20564;42.902;25.336;2023-07-31T06:18:33;96816.31;;;21.86;100.00
34297;BME280;20564;42.902;25.336;2023-07-31T06:21:03;96811.19;;;21.85;100.00
34297;BME280;20564;42.902;25.336;2023-07-31T06:23:29;96823.00;;;21.77;100.00
34297;BME280;20564;42.902;25.336;2023-07-31T06:25:56;96814.97;;;21.77;100.00
34297;BME280;20564;42.902;25.336;2023-07-31T06:28:28;96817.22;;;21.80;100.00
34297;BME280;20564;42.902;25.336;2023-07-31T06:30:58;96823.66;;;21.73;100.00
34297;BME280;20564;42.902;25.336;2023-07-31T06:33:25;96820.16;;;21.72;100.00
34297;BME280;20564;42.902;25.336;2023-07-31T06:35:52;96834.16;;;21.74;100.00
34297;BME280;20564;42.902;25.336;2023-07-31T06:38:21;96819.06;;;21.80;100.00
34297;BME280;20564;42.902;25.336;2023-07-31T06:40:49;96825.91;;;21.76;100.00
34297;BME280;20564;42.902;25.336;2023-07-31T06:43:16;96828.03;;;21.67;100.00
34297;BME280;20564;42.902;25.336;2023-07-31T06:45:43;96830.03;;;21.72;100.00
34297;BME280;20564;42.902;25.336;2023-07-31T06:48:10;96826.84;;;21.63;100.00
34297;BME280;20564;42.902;25.336;2023-07-31T06:50:38;96832.19;;;21.63;100.00
34297;BME280;20564;42.902;25.336;2023-07-31T06:53:05;96830.13;;;21.65;100.00
34297;BME280;20564;42.902;25.336;2023-07-31T06:55:32;96828.91;;;21.61;100.00
34297;BME280;20564;42.902;25.336;2023-07-31T06:58:00;96827.25;;;21.60;100.00
34297;BME280;20564;42.902;25.336;2023-07-31T07:00:27;96821.31;;;21.58;100.00
34297;BME280;20564;42.902;25.336;2023-07-31T07:02:54;96824.31;;;21.68;100.00
34297;BME280;20564;42.902;25.336;2023-07-31T07:05:21;96826.41;;;21.66;100.00
34297;BME280;20564;42.902;25.336;2023-07-31T07:07:49;96820.16;;;21.72;100.00
34297;BME280;20564;42.902;25.336;2023-07-31T07:10:17;96809.16;;;21.80;100.00
34297;BME280;20564;42.902;25.336;2023-07-31T07:12:43;96807.19;;;21.94;100.00
34297;BME280;20564;42.902;25.336;2023-07-31T07:15:10;96812.19;;;22.09;100.00
34297;BME280;20564;42.902;25.336;2023-07-31T07:17:37;96811.91;;;22.17;100.00
34297;BME280;20564;42.902;25.336;2023-07-31T07:20:04;96815.78;;;22.39;100.00
34297;BME280;20564;42.902;25.336;2023-07-31T07:22:31;96813.53;;;22.55;100.00
34297;BME280;20564;42.902;25.336;2023-07-31T07:24:58;96817.69;;;22.69;100.00
34297;BME280;20564;42.902;25.336;2023-07-31T07:27:25;96809.56;;;22.76;100.00
34297;BME280;20564;42.902;25.336;2023-07-31T07:29:52;96819.47;;;22.94;100.00
34297;BME280;20564;42.902;25.336;2023-07-31T07:32:20;96818.50;;;23.18;100.00
34297;BME280;20564;42.902;25.336;2023-07-31T07:34:47;96817.84;;;23.34;100.00
34297;BME280;20564;42.902;25.336;2023-07-31T07:37:14;96825.09;;;23.46;100.00
34297;BME280;20564;42.902;25.336;2023-07-31T07:39:42;96824.91;;;23.59;100.00
34297;BME280;20564;42.902;25.336;2023-07-31T07:42:09;96830.38;;;23.64;100.00
34297;BME280;20564;42.902;25.336;2023-07-31T07:44:36;96828.50;;;23.65;100.00
34297;BME280;20564;42.902;25.336;2023-07-31T07:47:03;96822.59;;;23.74;100.00
34297;BME280;20564;42.902;25.336;2023-07-31T07:49:33;96821.53;;;23.87;98.83
34297;BME280;20564;42.902;25.336;2023-07-31T07:52:01;96823.75;;;24.02;96.53
34297;BME280;20564;42.902;25.336;2023-07-31T07:54:32;96821.19;;;24.19;95.28
34297;BME280;20564;42.902;25.336;2023-07-31T07:56:59;96820.09;;;24.55;98.15
34297;BME280;20564;42.902;25.336;2023-07-31T07:59:25;96823.03;;;24.82;94.91
34297;BME280;20564;42.902;25.336;2023-07-31T08:01:52;96820.28;;;25.06;92.96
34297;BME280;20564;42.902;25.336;2023-07-31T08:04:20;96820.16;;;25.29;96.52
34297;BME280;20564;42.902;25.336;2023-07-31T08:06:47;96818.25;;;25.41;94.12
34297;BME280;20564;42.902;25.336;2023-07-31T08:09:14;96828.94;;;25.53;90.76
34297;BME280;20564;42.902;25.336;2023-07-31T08:11:40;96819.81;;;25.71;88.44
34297;BME280;20564;42.902;25.336;2023-07-31T08:14:07;96815.56;;;25.92;86.26
34297;BME280;20564;42.902;25.336;2023-07-31T08:16:35;96811.44;;;26.06;83.95
34297;BME280;20564;42.902;25.336;2023-07-31T08:19:02;96813.09;;;26.07;83.16
34297;BME280;20564;42.902;25.336;2023-07-31T08:21:29;96811.75;;;26.10;80.99
34297;BME280;20564;42.902;25.336;2023-07-31T08:23:56;96819.22;;;26.41;80.62
34297;BME280;20564;42.902;25.336;2023-07-31T08:26:23;96813.72;;;26.75;82.15
34297;BME280;20564;42.902;25.336;2023-07-31T08:28:50;96814.88;;;27.06;75.52
34297;BME280;20564;42.902;25.336;2023-07-31T08:31:17;96799.53;;;27.39;73.28
34297;BME280;20564;42.902;25.336;2023-07-31T08:33:45;96806.41;;;27.84;73.17
34297;BME280;20564;42.902;25.336;2023-07-31T08:36:12;96797.22;;;28.27;67.26
34297;BME280;20564;42.902;25.336;2023-07-31T08:38:39;96792.72;;;28.48;63.11
34297;BME280;20564;42.902;25.336;2023-07-31T08:41:06;96791.75;;;28.75;62.60
34297;BME280;20564;42.902;25.336;2023-07-31T08:43:33;96791.63;;;29.22;61.10
34297;BME280;20564;42.902;25.336;2023-07-31T08:46:00;96788.13;;;29.68;60.04
34297;BME280;20564;42.902;25.336;2023-07-31T08:48:28;96787.25;;;30.18;60.00
34297;BME280;20564;42.902;25.336;2023-07-31T08:50:55;96785.31;;;30.24;57.79
34297;BME280;20564;42.902;25.336;2023-07-31T08:53:22;96781.53;;;30.15;56.04
34297;BME280;20564;42.902;25.336;2023-07-31T08:55:52;96789.97;;;30.03;56.38
34297;BME280;20564;42.902;25.336;2023-07-31T08:58:19;96786.72;;;30.06;57.21
34297;BME280;20564;42.902;25.336;2023-07-31T09:00:46;96788.13;;;29.88;55.01
34297;BME280;20564;42.902;25.336;2023-07-31T09:03:15;96788.41;;;29.66;56.13
34297;BME280;20564;42.902;25.336;2023-07-31T09:05:45;96790.78;;;29.32;54.59
34297;BME280;20564;42.902;25.336;2023-07-31T09:08:14;96795.66;;;29.15;55.55
34297;BME280;20564;42.902;25.336;2023-07-31T09:10:45;96795.09;;;29.02;56.51
34297;BME280;20564;42.902;25.336;2023-07-31T09:13:16;96792.34;;;28.97;56.99
34297;BME280;20564;42.902;25.336;2023-07-31T09:15:44;96790.22;;;29.04;56.35
34297;BME280;20564;42.902;25.336;2023-07-31T09:18:12;96796.19;;;29.06;56.22
34297;BME280;20564;42.902;25.336;2023-07-31T09:20:43;96794.50;;;28.95;56.01
34297;BME280;20564;42.902;25.336;2023-07-31T09:23:12;96797.75;;;28.87;56.27
34297;BME280;20564;42.902;25.336;2023-07-31T09:25:43;96795.38;;;29.21;55.75
34297;BME280;20564;42.902;25.336;2023-07-31T09:28:11;96785.97;;;29.70;54.50
34297;BME280;20564;42.902;25.336;2023-07-31T09:30:50;96778.31;;;29.97;53.59
34297;BME280;20564;42.902;25.336;2023-07-31T09:33:18;96775.56;;;30.08;52.92
34297;BME280;20564;42.902;25.336;2023-07-31T09:35:46;96774.78;;;30.07;51.50
34297;BME280;20564;42.902;25.336;2023-07-31T09:38:15;96771.81;;;29.98;52.13
34297;BME280;20564;42.902;25.336;2023-07-31T09:40:45;96769.94;;;29.78;53.14
34297;BME280;20564;42.902;25.336;2023-07-31T09:43:20;96769.69;;;29.60;52.34
34297;BME280;20564;42.902;25.336;2023-07-31T09:45:47;96770.19;;;29.46;51.96
34297;BME280;20564;42.902;25.336;2023-07-31T09:48:16;96764.78;;;29.31;50.48
34297;BME280;20564;42.902;25.336;2023-07-31T09:50:46;96769.13;;;29.27;51.40
34297;BME280;20564;42.902;25.336;2023-07-31T09:53:14;96766.94;;;29.03;51.36
34297;BME280;20564;42.902;25.336;2023-07-31T09:55:42;96754.16;;;28.99;50.74
34297;BME280;20564;42.902;25.336;2023-07-31T09:58:11;96753.38;;;29.19;51.13
34297;BME280;20564;42.902;25.336;2023-07-31T10:00:38;96755.28;;;29.08;51.82
34297;BME280;20564;42.902;25.336;2023-07-31T10:03:10;96763.41;;;29.13;50.78
34297;BME280;20564;42.902;25.336;2023-07-31T10:05:43;96758.78;;;28.98;52.79
34297;BME280;20564;42.902;25.336;2023-07-31T10:08:14;96755.00;;;29.20;51.07
34297;BME280;20564;42.902;25.336;2023-07-31T10:10:43;96751.47;;;29.40;50.46
34297;BME280;20564;42.902;25.336;2023-07-31T10:13:13;96756.91;;;29.45;50.38
34297;BME280;20564;42.902;25.336;2023-07-31T10:15:41;96758.00;;;29.49;51.53
34297;BME280;20564;42.902;25.336;2023-07-31T10:18:10;96755.03;;;29.71;50.32
34297;BME280;20564;42.902;25.336;2023-07-31T10:20:38;96759.63;;;29.81;51.10
34297;BME280;20564;42.902;25.336;2023-07-31T10:23:06;96754.72;;;29.93;49.20
34297;BME280;20564;42.902;25.336;2023-07-31T10:25:34;96758.78;;;29.90;48.70
34297;BME280;20564;42.902;25.336;2023-07-31T10:28:01;96752.59;;;29.69;49.47
34297;BME280;20564;42.902;25.336;2023-07-31T10:30:30;96761.53;;;29.54;49.39
34297;BME280;20564;42.902;25.336;2023-07-31T10:32:59;96760.44;;;29.50;51.00
34297;BME280;20564;42.902;25.336;2023-07-31T10:35:27;96759.91;;;29.64;51.96
34297;BME280;20564;42.902;25.336;2023-07-31T10:37:54;96741.19;;;29.77;49.37
34297;BME280;20564;42.902;25.336;2023-07-31T10:40:27;96750.69;;;29.65;49.24
34297;BME280;20564;42.902;25.336;2023-07-31T10:42:56;96757.75;;;29.61;50.33
34297;BME280;20564;42.902;25.336;2023-07-31T10:48:22;96762.59;;;29.38;49.83
34297;BME280;20564;42.902;25.336;2023-07-31T10:50:55;96761.47;;;28.98;50.42
34297;BME280;20564;42.902;25.336;2023-07-31T10:53:29;96762.50;;;28.82;51.44
34297;BME280;20564;42.902;25.336;2023-07-31T10:56:03;96768.44;;;28.64;51.29
34297;BME280;20564;42.902;25.336;2023-07-31T10:58:31;96760.31;;;28.69;53.03
34297;BME280;20564;42.902;25.336;2023-07-31T11:01:06;96753.78;;;28.65;51.83
34297;BME280;20564;42.902;25.336;2023-07-31T11:03:49;96755.38;;;28.55;53.27
34297;BME280;20564;42.902;25.336;2023-07-31T11:06:19;96758.63;;;28.52;51.65
34297;BME280;20564;42.902;25.336;2023-07-31T11:08:47;96754.81;;;28.48;52.21
34297;BME280;20564;42.902;25.336;2023-07-31T11:11:17;96759.13;;;28.44;53.04
34297;BME280;20564;42.902;25.336;2023-07-31T11:13:52;96762.09;;;28.38;53.34
34297;BME280;20564;42.902;25.336;2023-07-31T11:16:21;96759.88;;;28.34;53.21
34297;BME280;20564;42.902;25.336;2023-07-31T11:18:50;96753.97;;;28.38;52.32
34297;BME280;20564;42.902;25.336;2023-07-31T11:21:22;96751.59;;;28.56;52.79
34297;BME280;20564;42.902;25.336;2023-07-31T11:23:52;96754.31;;;28.62;53.03
34297;BME280;20564;42.902;25.336;2023-07-31T11:26:20;96749.75;;;28.77;53.29
34297;BME280;20564;42.902;25.336;2023-07-31T11:28:47;96754.38;;;28.82;52.42
34297;BME280;20564;42.902;25.336;2023-07-31T11:31:15;96763.03;;;28.84;52.56
34297;BME280;20564;42.902;25.336;2023-07-31T11:33:42;96756.53;;;28.80;51.58
34297;BME280;20564;42.902;25.336;2023-07-31T11:36:20;96750.81;;;28.66;51.02
34297;BME280;20564;42.902;25.336;2023-07-31T11:38:47;96738.06;;;28.62;49.77
34297;BME280;20564;42.902;25.336;2023-07-31T11:41:15;96745.13;;;28.63;50.52
34297;BME280;20564;42.902;25.336;2023-07-31T11:43:45;96741.63;;;28.67;49.84
34297;BME280;20564;42.902;25.336;2023-07-31T11:46:13;96734.84;;;28.65;48.72
34297;BME280;20564;42.902;25.336;2023-07-31T11:48:42;96733.22;;;28.64;49.50
34297;BME280;20564;42.902;25.336;2023-07-31T11:51:10;96728.91;;;28.78;49.45
34297;BME280;20564;42.902;25.336;2023-07-31T11:53:56;96731.09;;;28.91;48.30
34297;BME280;20564;42.902;25.336;2023-07-31T11:56:24;96724.59;;;28.97;49.07
34297;BME280;20564;42.902;25.336;2023-07-31T11:58:58;96730.56;;;28.94;49.85
34297;BME280;20564;42.902;25.336;2023-07-31T12:01:27;96725.75;;;29.22;50.16
34297;BME280;20564;42.902;25.336;2023-07-31T12:03:54;96718.16;;;29.44;49.17
34297;BME280;20564;42.902;25.336;2023-07-31T12:06:32;96717.59;;;29.68;48.76
34297;BME280;20564;42.902;25.336;2023-07-31T12:09:05;96714.06;;;29.67;48.09
34297;BME280;20564;42.902;25.336;2023-07-31T12:11:49;96720.84;;;29.44;48.62
34297;BME280;20564;42.902;25.336;2023-07-31T12:14:27;96728.97;;;29.24;48.59
34297;BME280;20564;42.902;25.336;2023-07-31T12:16:59;96719.50;;;29.11;49.28
34297;BME280;20564;42.902;25.336;2023-07-31T12:19:26;96717.56;;;28.96;49.88
34297;BME280;20564;42.902;25.336;2023-07-31T12:22:01;96718.63;;;28.80;51.83
34297;BME280;20564;42.902;25.336;2023-07-31T12:24:27;96726.13;;;28.47;50.75
34297;BME280;20564;42.902;25.336;2023-07-31T12:26:54;96709.97;;;28.10;51.40
34297;BME280;20564;42.902;25.336;2023-07-31T12:29:22;96711.38;;;28.18;52.94
34297;BME280;20564;42.902;25.336;2023-07-31T12:31:49;96704.22;;;28.54;52.89
34297;BME280;20564;42.902;25.336;2023-07-31T12:34:17;96703.44;;;28.84;51.43
34297;BME280;20564;42.902;25.336;2023-07-31T12:36:44;96703.50;;;29.04;50.06
34297;BME280;20564;42.902;25.336;2023-07-31T12:39:12;96710.00;;;29.24;49.07
34297;BME280;20564;42.902;25.336;2023-07-31T12:41:39;96703.50;;;29.25;48.61
34297;BME280;20564;42.902;25.336;2023-07-31T12:44:06;96692.94;;;29.13;49.92
34297;BME280;20564;42.902;25.336;2023-07-31T12:46:33;96701.56;;;28.95;51.28
34297;BME280;20564;42.902;25.336;2023-07-31T12:49:00;96697.53;;;29.18;50.47
34297;BME280;20564;42.902;25.336;2023-07-31T12:51:27;96690.50;;;29.47;49.58
34297;BME280;20564;42.902;25.336;2023-07-31T12:53:54;96697.22;;;29.81;50.67
34297;BME280;20564;42.902;25.336;2023-07-31T12:56:21;96699.59;;;29.97;48.34
34297;BME280;20564;42.902;25.336;2023-07-31T12:58:48;96687.09;;;30.07;48.51
34297;BME280;20564;42.902;25.336;2023-07-31T13:01:15;96694.75;;;29.89;47.41